sensor_id;sensor_type;location;lat;lon;timestamp;temperature;humidity
81136;DHT22;70622;50.886;3.890;2023-07-20T00:02:14;17.50;76.80
81136;DHT22;70622;50.886;3.890;2023-07-20T00:04:40;17.40;77.10
81136;DHT22;70622;50.886;3.890;2023-07-20T00:07:05;17.40;77.50
81136;DHT22;70622;50.886;3.890;2023-07-20T00:09:31;17.30;77.70
81136;DHT22;70622;50.886;3.890;2023-07-20T00:11:57;17.30;77.70
81136;DHT22;70622;50.886;3.890;2023-07-20T00:14:23;17.40;77.40
81136;DHT22;70622;50.886;3.890;2023-07-20T00:16:52;17.40;77.40
81136;DHT22;70622;50.886;3.890;2023-07-20T00:19:22;17.50;77.40
81136;DHT22;70622;50.886;3.890;2023-07-20T00:21:48;17.50;77.30
81136;DHT22;70622;50.886;3.890;2023-07-20T00:24:13;17.60;77.10
81136;DHT22;70622;50.886;3.890;2023-07-20T00:26:39;17.50;77.30
81136;DHT22;70622;50.886;3.890;2023-07-20T00:29:04;17.50;77.40
81136;DHT22;70622;50.886;3.890;2023-07-20T00:31:30;17.40;77.70
81136;DHT22;70622;50.886;3.890;2023-07-20T00:33:56;17.30;78.00
81136;DHT22;70622;50.886;3.890;2023-07-20T00:36:21;17.20;78.60
81136;DHT22;70622;50.886;3.890;2023-07-20T00:38:47;17.10;79.10
81136;DHT22;70622;50.886;3.890;2023-07-20T00:41:12;17.20;79.50
81136;DHT22;70622;50.886;3.890;2023-07-20T00:43:38;17.00;79.70
81136;DHT22;70622;50.886;3.890;2023-07-20T00:46:04;17.00;79.90
81136;DHT22;70622;50.886;3.890;2023-07-20T00:48:30;16.90;79.90
81136;DHT22;70622;50.886;3.890;2023-07-20T00:50:57;16.90;80.20
81136;DHT22;70622;50.886;3.890;2023-07-20T00:53:23;16.90;80.00
81136;DHT22;70622;50.886;3.890;2023-07-20T00:55:49;17.00;80.00
81136;DHT22;70622;50.886;3.890;2023-07-20T00:58:14;17.00;80.00
81136;DHT22;70622;50.886;3.890;2023-07-20T01:00:40;17.00;80.00
81136;DHT22;70622;50.886;3.890;2023-07-20T01:03:06;17.00;80.60
81136;DHT22;70622;50.886;3.890;2023-07-20T01:05:38;16.80;80.70
81136;DHT22;70622;50.886;3.890;2023-07-20T01:08:11;16.80;80.60
81136;DHT22;70622;50.886;3.890;2023-07-20T01:10:49;16.80;81.20
81136;DHT22;70622;50.886;3.890;2023-07-20T01:13:16;16.80;81.40
81136;DHT22;70622;50.886;3.890;2023-07-20T01:15:48;16.90;81.10
81136;DHT22;70622;50.886;3.890;2023-07-20T01:18:14;16.70;81.30
81136;DHT22;70622;50.886;3.890;2023-07-20T01:20:39;16.70;81.60
81136;DHT22;70622;50.886;3.890;2023-07-20T01:31:27;16.70;81.60
81136;DHT22;70622;50.886;3.890;2023-07-20T01:33:54;16.80;81.20
81136;DHT22;70622;50.886;3.890;2023-07-20T01:36:21;16.90;81.20
81136;DHT22;70622;50.886;3.890;2023-07-20T01:38:48;16.90;80.90
81136;DHT22;70622;50.886;3.890;2023-07-20T01:41:14;16.90;80.80
81136;DHT22;70622;50.886;3.890;2023-07-20T01:43:40;17.00;80.60
81136;DHT22;70622;50.886;3.890;2023-07-20T01:46:06;17.00;80.60
81136;DHT22;70622;50.886;3.890;2023-07-20T01:48:31;16.80;81.00
81136;DHT22;70622;50.886;3.890;2023-07-20T01:50:57;16.80;81.10
81136;DHT22;70622;50.886;3.890;2023-07-20T01:53:23;16.80;81.60
81136;DHT22;70622;50.886;3.890;2023-07-20T01:55:48;16.90;81.60
81136;DHT22;70622;50.886;3.890;2023-07-20T01:58:14;16.90;81.40
81136;DHT22;70622;50.886;3.890;2023-07-20T02:00:40;16.80;81.40
81136;DHT22;70622;50.886;3.890;2023-07-20T02:03:06;16.80;82.80
81136;DHT22;70622;50.886;3.890;2023-07-20T02:05:31;16.60;82.20
81136;DHT22;70622;50.886;3.890;2023-07-20T02:07:57;16.60;82.40
81136;DHT22;70622;50.886;3.890;2023-07-20T02:10:23;16.70;83.40
81136;DHT22;70622;50.886;3.890;2023-07-20T02:12:48;16.70;82.50
81136;DHT22;70622;50.886;3.890;2023-07-20T02:15:14;16.60;82.60
81136;DHT22;70622;50.886;3.890;2023-07-20T02:17:42;16.50;83.00
81136;DHT22;70622;50.886;3.890;2023-07-20T02:20:08;16.50;83.30
81136;DHT22;70622;50.886;3.890;2023-07-20T02:22:37;16.40;83.20
81136;DHT22;70622;50.886;3.890;2023-07-20T02:25:06;16.50;83.10
81136;DHT22;70622;50.886;3.890;2023-07-20T02:27:32;16.50;83.10
81136;DHT22;70622;50.886;3.890;2023-07-20T02:29:58;16.60;82.70
81136;DHT22;70622;50.886;3.890;2023-07-20T02:32:24;16.50;82.80
81136;DHT22;70622;50.886;3.890;2023-07-20T02:34:49;16.50;82.60
81136;DHT22;70622;50.886;3.890;2023-07-20T02:37:16;16.50;82.80
81136;DHT22;70622;50.886;3.890;2023-07-20T02:39:41;16.50;83.00
81136;DHT22;70622;50.886;3.890;2023-07-20T02:42:07;16.30;83.30
81136;DHT22;70622;50.886;3.890;2023-07-20T02:44:32;16.40;83.70
81136;DHT22;70622;50.886;3.890;2023-07-20T02:46:58;16.40;83.90
81136;DHT22;70622;50.886;3.890;2023-07-20T02:49:23;16.50;83.30
81136;DHT22;70622;50.886;3.890;2023-07-20T02:51:49;16.50;83.20
81136;DHT22;70622;50.886;3.890;2023-07-20T02:54:15;16.50;84.00
81136;DHT22;70622;50.886;3.890;2023-07-20T02:56:40;16.50;83.20
81136;DHT22;70622;50.886;3.890;2023-07-20T02:59:06;16.60;83.20
81136;DHT22;70622;50.886;3.890;2023-07-20T03:01:31;16.60;82.90
81136;DHT22;70622;50.886;3.890;2023-07-20T03:03:57;16.70;82.60
81136;DHT22;70622;50.886;3.890;2023-07-20T03:06:22;16.80;82.20
81136;DHT22;70622;50.886;3.890;2023-07-20T03:08:48;16.90;81.80
81136;DHT22;70622;50.886;3.890;2023-07-20T03:11:18;17.00;81.40
81136;DHT22;70622;50.886;3.890;2023-07-20T03:13:44;17.10;80.90
81136;DHT22;70622;50.886;3.890;2023-07-20T03:16:10;17.00;80.80
81136;DHT22;70622;50.886;3.890;2023-07-20T03:18:38;16.90;81.10
81136;DHT22;70622;50.886;3.890;2023-07-20T03:21:04;16.70;81.80
81136;DHT22;70622;50.886;3.890;2023-07-20T03:23:29;16.80;81.90
81136;DHT22;70622;50.886;3.890;2023-07-20T03:25:55;16.80;81.80
81136;DHT22;70622;50.886;3.890;2023-07-20T03:28:21;16.80;81.50
81136;DHT22;70622;50.886;3.890;2023-07-20T03:30:46;16.90;81.60
81136;DHT22;70622;50.886;3.890;2023-07-20T03:33:12;16.90;81.90
81136;DHT22;70622;50.886;3.890;2023-07-20T03:35:37;16.80;82.10
81136;DHT22;70622;50.886;3.890;2023-07-20T03:38:03;16.70;82.50
81136;DHT22;70622;50.886;3.890;2023-07-20T03:40:29;16.60;82.90
81136;DHT22;70622;50.886;3.890;2023-07-20T03:42:55;16.60;82.70
81136;DHT22;70622;50.886;3.890;2023-07-20T03:45:20;16.70;82.70
81136;DHT22;70622;50.886;3.890;2023-07-20T03:47:49;16.80;82.30
81136;DHT22;70622;50.886;3.890;2023-07-20T03:50:14;16.90;82.10
81136;DHT22;70622;50.886;3.890;2023-07-20T03:52:40;16.90;81.90
81136;DHT22;70622;50.886;3.890;2023-07-20T03:55:06;16.90;81.60
81136;DHT22;70622;50.886;3.890;2023-07-20T03:57:31;17.00;81.20
81136;DHT22;70622;50.886;3.890;2023-07-20T03:59:59;17.20;81.00
81136;DHT22;70622;50.886;3.890;2023-07-20T04:02:24;17.20;80.40
81136;DHT22;70622;50.886;3.890;2023-07-20T04:04:51;17.20;80.40
81136;DHT22;70622;50.886;3.890;2023-07-20T04:07:16;17.30;80.40
81136;DHT22;70622;50.886;3.890;2023-07-20T04:09:42;17.30;80.10
81136;DHT22;70622;50.886;3.890;2023-07-20T04:12:07;17.20;80.40
81136;DHT22;70622;50.886;3.890;2023-07-20T04:14:33;17.10;80.80
81136;DHT22;70622;50.886;3.890;2023-07-20T04:16:58;17.30;80.30
81136;DHT22;70622;50.886;3.890;2023-07-20T04:19:25;17.30;79.80
81136;DHT22;70622;50.886;3.890;2023-07-20T04:21:51;17.50;79.30
81136;DHT22;70622;50.886;3.890;2023-07-20T04:24:16;17.40;79.10
81136;DHT22;70622;50.886;3.890;2023-07-20T04:26:42;17.50;78.80
81136;DHT22;70622;50.886;3.890;2023-07-20T04:29:08;17.50;79.00
81136;DHT22;70622;50.886;3.890;2023-07-20T04:31:33;17.40;78.90
81136;DHT22;70622;50.886;3.890;2023-07-20T04:33:59;17.40;78.90
81136;DHT22;70622;50.886;3.890;2023-07-20T04:36:25;17.50;79.00
81136;DHT22;70622;50.886;3.890;2023-07-20T04:38:50;17.50;78.60
81136;DHT22;70622;50.886;3.890;2023-07-20T04:41:16;17.60;78.80
81136;DHT22;70622;50.886;3.890;2023-07-20T04:43:41;17.50;78.60
81136;DHT22;70622;50.886;3.890;2023-07-20T04:46:08;17.50;78.60
81136;DHT22;70622;50.886;3.890;2023-07-20T04:48:34;17.50;79.00
81136;DHT22;70622;50.886;3.890;2023-07-20T04:51:00;17.40;79.60
81136;DHT22;70622;50.886;3.890;2023-07-20T04:53:25;17.40;79.90
81136;DHT22;70622;50.886;3.890;2023-07-20T04:55:51;17.40;79.70
81136;DHT22;70622;50.886;3.890;2023-07-20T04:58:17;17.50;79.40
81136;DHT22;70622;50.886;3.890;2023-07-20T05:00:43;17.50;79.10
81136;DHT22;70622;50.886;3.890;2023-07-20T05:03:09;17.60;79.30
81136;DHT22;70622;50.886;3.890;2023-07-20T05:05:35;17.60;78.70
81136;DHT22;70622;50.886;3.890;2023-07-20T05:08:00;17.70;78.80
81136;DHT22;70622;50.886;3.890;2023-07-20T05:10:26;17.70;78.30
81136;DHT22;70622;50.886;3.890;2023-07-20T05:12:51;17.60;78.50
81136;DHT22;70622;50.886;3.890;2023-07-20T05:15:17;17.60;79.70
81136;DHT22;70622;50.886;3.890;2023-07-20T05:17:42;17.60;78.80
81136;DHT22;70622;50.886;3.890;2023-07-20T05:20:08;17.80;78.90
81136;DHT22;70622;50.886;3.890;2023-07-20T05:22:38;17.90;77.90
81136;DHT22;70622;50.886;3.890;2023-07-20T05:25:06;18.00;77.00
81136;DHT22;70622;50.886;3.890;2023-07-20T05:27:31;18.10;76.70
81136;DHT22;70622;50.886;3.890;2023-07-20T05:29:57;17.90;77.10
81136;DHT22;70622;50.886;3.890;2023-07-20T05:32:22;17.80;77.50
81136;DHT22;70622;50.886;3.890;2023-07-20T05:34:51;18.00;77.40
81136;DHT22;70622;50.886;3.890;2023-07-20T05:37:16;18.10;76.40
81136;DHT22;70622;50.886;3.890;2023-07-20T05:39:42;18.20;75.90
81136;DHT22;70622;50.886;3.890;2023-07-20T05:42:07;18.30;75.80
81136;DHT22;70622;50.886;3.890;2023-07-20T05:44:33;18.40;75.70
81136;DHT22;70622;50.886;3.890;2023-07-20T05:46:59;18.40;75.40
81136;DHT22;70622;50.886;3.890;2023-07-20T05:49:24;18.60;74.70
81136;DHT22;70622;50.886;3.890;2023-07-20T05:51:50;18.70;73.60
81136;DHT22;70622;50.886;3.890;2023-07-20T05:54:15;18.70;73.90
81136;DHT22;70622;50.886;3.890;2023-07-20T05:56:41;18.70;73.40
81136;DHT22;70622;50.886;3.890;2023-07-20T05:59:06;18.80;73.40
81136;DHT22;70622;50.886;3.890;2023-07-20T06:01:32;19.00;72.80
81136;DHT22;70622;50.886;3.890;2023-07-20T06:03:58;19.00;72.00
81136;DHT22;70622;50.886;3.890;2023-07-20T06:06:23;19.10;71.80
81136;DHT22;70622;50.886;3.890;2023-07-20T06:08:49;19.20;71.50
81136;DHT22;70622;50.886;3.890;2023-07-20T06:11:14;19.20;71.50
81136;DHT22;70622;50.886;3.890;2023-07-20T06:13:40;19.30;71.50
81136;DHT22;70622;50.886;3.890;2023-07-20T06:16:05;19.30;70.90
81136;DHT22;70622;50.886;3.890;2023-07-20T06:18:31;19.40;70.50
81136;DHT22;70622;50.886;3.890;2023-07-20T06:20:56;19.40;71.60
81136;DHT22;70622;50.886;3.890;2023-07-20T06:23:22;19.40;71.40
81136;DHT22;70622;50.886;3.890;2023-07-20T06:25:47;19.50;70.80
81136;DHT22;70622;50.886;3.890;2023-07-20T06:28:13;19.60;70.90
81136;DHT22;70622;50.886;3.890;2023-07-20T06:30:39;19.80;70.50
81136;DHT22;70622;50.886;3.890;2023-07-20T06:33:05;19.70;69.30
81136;DHT22;70622;50.886;3.890;2023-07-20T06:35:30;19.80;68.70
81136;DHT22;70622;50.886;3.890;2023-07-20T06:37:56;20.00;69.00
81136;DHT22;70622;50.886;3.890;2023-07-20T06:40:22;20.20;67.80
81136;DHT22;70622;50.886;3.890;2023-07-20T06:42:48;20.40;66.90
81136;DHT22;70622;50.886;3.890;2023-07-20T06:45:14;20.60;66.30
81136;DHT22;70622;50.886;3.890;2023-07-20T06:47:39;20.70;66.20
81136;DHT22;70622;50.886;3.890;2023-07-20T06:50:08;20.90;66.00
81136;DHT22;70622;50.886;3.890;2023-07-20T06:52:34;21.00;64.70
81136;DHT22;70622;50.886;3.890;2023-07-20T06:54:59;20.90;63.50
81136;DHT22;70622;50.886;3.890;2023-07-20T06:57:25;21.00;63.60
81136;DHT22;70622;50.886;3.890;2023-07-20T06:59:51;21.20;62.40
81136;DHT22;70622;50.886;3.890;2023-07-20T07:02:16;21.30;62.00
81136;DHT22;70622;50.886;3.890;2023-07-20T07:04:42;21.30;61.90
81136;DHT22;70622;50.886;3.890;2023-07-20T07:07:08;21.40;61.30
81136;DHT22;70622;50.886;3.890;2023-07-20T07:09:34;21.40;61.70
81136;DHT22;70622;50.886;3.890;2023-07-20T07:12:00;21.30;62.30
81136;DHT22;70622;50.886;3.890;2023-07-20T07:14:25;21.20;62.00
81136;DHT22;70622;50.886;3.890;2023-07-20T07:16:51;21.20;61.50
81136;DHT22;70622;50.886;3.890;2023-07-20T07:19:16;21.10;61.80
81136;DHT22;70622;50.886;3.890;2023-07-20T07:21:42;21.20;62.20
81136;DHT22;70622;50.886;3.890;2023-07-20T07:24:08;21.30;60.60
81136;DHT22;70622;50.886;3.890;2023-07-20T07:26:35;21.50;60.00
81136;DHT22;70622;50.886;3.890;2023-07-20T07:29:01;21.50;57.80
81136;DHT22;70622;50.886;3.890;2023-07-20T07:31:28;21.50;58.30
81136;DHT22;70622;50.886;3.890;2023-07-20T07:33:54;21.40;58.10
81136;DHT22;70622;50.886;3.890;2023-07-20T07:36:19;21.40;58.60
81136;DHT22;70622;50.886;3.890;2023-07-20T07:38:45;21.30;58.40
81136;DHT22;70622;50.886;3.890;2023-07-20T07:41:10;21.20;58.10
81136;DHT22;70622;50.886;3.890;2023-07-20T07:43:36;21.20;58.00
81136;DHT22;70622;50.886;3.890;2023-07-20T07:46:01;21.00;57.40
81136;DHT22;70622;50.886;3.890;2023-07-20T07:48:27;21.10;58.10
81136;DHT22;70622;50.886;3.890;2023-07-20T07:50:53;21.00;59.40
81136;DHT22;70622;50.886;3.890;2023-07-20T07:53:19;21.20;59.00
81136;DHT22;70622;50.886;3.890;2023-07-20T07:55:47;21.30;58.40
81136;DHT22;70622;50.886;3.890;2023-07-20T07:58:12;21.40;57.60
81136;DHT22;70622;50.886;3.890;2023-07-20T08:00:38;21.40;56.30
81136;DHT22;70622;50.886;3.890;2023-07-20T08:03:05;21.60;56.30
81136;DHT22;70622;50.886;3.890;2023-07-20T08:05:31;21.90;55.60
81136;DHT22;70622;50.886;3.890;2023-07-20T08:07:56;21.90;56.00
81136;DHT22;70622;50.886;3.890;2023-07-20T08:10:22;22.10;55.00
81136;DHT22;70622;50.886;3.890;2023-07-20T08:12:48;22.30;54.80
81136;DHT22;70622;50.886;3.890;2023-07-20T08:15:13;22.50;53.50
81136;DHT22;70622;50.886;3.890;2023-07-20T08:17:40;22.60;53.70
81136;DHT22;70622;50.886;3.890;2023-07-20T08:20:06;22.90;53.40
81136;DHT22;70622;50.886;3.890;2023-07-20T08:22:32;23.30;52.50
81136;DHT22;70622;50.886;3.890;2023-07-20T08:24:57;23.30;51.80
81136;DHT22;70622;50.886;3.890;2023-07-20T08:27:23;23.30;51.20
81136;DHT22;70622;50.886;3.890;2023-07-20T08:29:49;23.20;51.50
81136;DHT22;70622;50.886;3.890;2023-07-20T08:32:15;23.60;50.70
81136;DHT22;70622;50.886;3.890;2023-07-20T08:34:41;23.90;49.60
81136;DHT22;70622;50.886;3.890;2023-07-20T08:37:06;23.70;49.80
81136;DHT22;70622;50.886;3.890;2023-07-20T08:39:35;23.80;49.60
81136;DHT22;70622;50.886;3.890;2023-07-20T08:42:01;23.80;49.30
81136;DHT22;70622;50.886;3.890;2023-07-20T08:44:34;23.90;49.50
81136;DHT22;70622;50.886;3.890;2023-07-20T08:47:01;24.10;49.80
81136;DHT22;70622;50.886;3.890;2023-07-20T08:49:28;24.20;49.70
81136;DHT22;70622;50.886;3.890;2023-07-20T08:51:54;24.20;49.70
81136;DHT22;70622;50.886;3.890;2023-07-20T08:54:19;24.20;49.30
81136;DHT22;70622;50.886;3.890;2023-07-20T08:56:45;24.20;49.30
81136;DHT22;70622;50.886;3.890;2023-07-20T08:59:11;24.40;48.40
81136;DHT22;70622;50.886;3.890;2023-07-20T09:01:38;24.80;47.10
81136;DHT22;70622;50.886;3.890;2023-07-20T09:04:04;24.90;46.70
81136;DHT22;70622;50.886;3.890;2023-07-20T09:06:30;25.00;46.30
81136;DHT22;70622;50.886;3.890;2023-07-20T09:08:55;25.00;46.70
81136;DHT22;70622;50.886;3.890;2023-07-20T09:11:21;25.20;46.30
81136;DHT22;70622;50.886;3.890;2023-07-20T09:13:47;25.20;46.60
81136;DHT22;70622;50.886;3.890;2023-07-20T09:16:15;25.10;46.10
81136;DHT22;70622;50.886;3.890;2023-07-20T09:18:41;25.00;45.90
81136;DHT22;70622;50.886;3.890;2023-07-20T09:21:06;24.70;46.60
81136;DHT22;70622;50.886;3.890;2023-07-20T09:23:33;25.20;45.80
81136;DHT22;70622;50.886;3.890;2023-07-20T09:25:59;25.70;43.80
81136;DHT22;70622;50.886;3.890;2023-07-20T09:28:25;25.80;44.20
81136;DHT22;70622;50.886;3.890;2023-07-20T09:30:50;26.00;43.20
81136;DHT22;70622;50.886;3.890;2023-07-20T09:33:22;25.90;43.60
81136;DHT22;70622;50.886;3.890;2023-07-20T09:35:48;25.90;43.60
81136;DHT22;70622;50.886;3.890;2023-07-20T09:38:14;25.80;44.00
81136;DHT22;70622;50.886;3.890;2023-07-20T09:40:40;25.70;44.40
81136;DHT22;70622;50.886;3.890;2023-07-20T09:43:09;25.70;44.50
81136;DHT22;70622;50.886;3.890;2023-07-20T09:45:35;25.70;43.70
81136;DHT22;70622;50.886;3.890;2023-07-20T09:48:08;25.80;44.00
81136;DHT22;70622;50.886;3.890;2023-07-20T09:50:50;25.80;43.50
81136;DHT22;70622;50.886;3.890;2023-07-20T09:53:16;25.80;43.30
81136;DHT22;70622;50.886;3.890;2023-07-20T09:55:46;25.50;43.80
81136;DHT22;70622;50.886;3.890;2023-07-20T09:58:13;24.80;45.10
81136;DHT22;70622;50.886;3.890;2023-07-20T10:00:39;24.90;45.70
81136;DHT22;70622;50.886;3.890;2023-07-20T10:03:05;25.20;45.80
81136;DHT22;70622;50.886;3.890;2023-07-20T10:05:32;25.70;44.70
81136;DHT22;70622;50.886;3.890;2023-07-20T10:07:59;25.90;42.90
81136;DHT22;70622;50.886;3.890;2023-07-20T10:10:26;25.60;42.50
81136;DHT22;70622;50.886;3.890;2023-07-20T10:12:52;25.70;42.70
81136;DHT22;70622;50.886;3.890;2023-07-20T10:15:25;25.50;42.40
81136;DHT22;70622;50.886;3.890;2023-07-20T10:18:07;25.40;43.40
81136;DHT22;70622;50.886;3.890;2023-07-20T10:20:36;25.50;43.00
81136;DHT22;70622;50.886;3.890;2023-07-20T10:23:02;25.50;42.90
81136;DHT22;70622;50.886;3.890;2023-07-20T10:25:27;25.40;43.30
81136;DHT22;70622;50.886;3.890;2023-07-20T10:27:53;25.20;43.40
81136;DHT22;70622;50.886;3.890;2023-07-20T10:30:19;25.20;44.00
81136;DHT22;70622;50.886;3.890;2023-07-20T10:32:45;25.20;43.80
81136;DHT22;70622;50.886;3.890;2023-07-20T10:35:15;25.30;43.10
81136;DHT22;70622;50.886;3.890;2023-07-20T10:43:04;26.00;42.40
81136;DHT22;70622;50.886;3.890;2023-07-20T10:48:19;26.50;41.00
81136;DHT22;70622;50.886;3.890;2023-07-20T10:50:45;26.60;40.90
81136;DHT22;70622;50.886;3.890;2023-07-20T10:53:15;26.60;40.60
81136;DHT22;70622;50.886;3.890;2023-07-20T10:55:41;26.80;40.90
81136;DHT22;70622;50.886;3.890;2023-07-20T10:58:07;26.60;40.80
81136;DHT22;70622;50.886;3.890;2023-07-20T11:00:34;26.70;41.10
81136;DHT22;70622;50.886;3.890;2023-07-20T11:02:59;26.50;40.60
81136;DHT22;70622;50.886;3.890;2023-07-20T11:08:09;26.40;39.90
81136;DHT22;70622;50.886;3.890;2023-07-20T11:10:35;26.50;39.60
81136;DHT22;70622;50.886;3.890;2023-07-20T11:13:15;26.70;39.90
81136;DHT22;70622;50.886;3.890;2023-07-20T11:15:44;26.90;39.70
81136;DHT22;70622;50.886;3.890;2023-07-20T11:18:11;27.40;38.90
81136;DHT22;70622;50.886;3.890;2023-07-20T11:20:36;27.30;38.20
81136;DHT22;70622;50.886;3.890;2023-07-20T11:23:02;27.20;39.00
81136;DHT22;70622;50.886;3.890;2023-07-20T11:25:35;27.20;38.60
81136;DHT22;70622;50.886;3.890;2023-07-20T11:28:01;27.20;39.10
81136;DHT22;70622;50.886;3.890;2023-07-20T11:30:26;26.70;39.50
81136;DHT22;70622;50.886;3.890;2023-07-20T11:32:52;26.60;39.90
81136;DHT22;70622;50.886;3.890;2023-07-20T11:35:17;26.30;40.20
81136;DHT22;70622;50.886;3.890;2023-07-20T11:37:43;26.20;40.40
81136;DHT22;70622;50.886;3.890;2023-07-20T11:40:08;25.90;40.60
81136;DHT22;70622;50.886;3.890;2023-07-20T11:42:34;25.50;41.00
81136;DHT22;70622;50.886;3.890;2023-07-20T11:45:02;25.40;41.50
81136;DHT22;70622;50.886;3.890;2023-07-20T11:47:30;25.20;41.70
81136;DHT22;70622;50.886;3.890;2023-07-20T11:49:55;25.10;41.90
81136;DHT22;70622;50.886;3.890;2023-07-20T11:52:27;25.10;42.80
81136;DHT22;70622;50.886;3.890;2023-07-20T11:54:53;25.10;42.70
81136;DHT22;70622;50.886;3.890;2023-07-20T11:57:19;25.10;42.80
81136;DHT22;70622;50.886;3.890;2023-07-20T11:59:54;24.90;42.70
81136;DHT22;70622;50.886;3.890;2023-07-20T12:02:24;25.00;42.40
81136;DHT22;70622;50.886;3.890;2023-07-20T12:04:53;24.90;42.60
81136;DHT22;70622;50.886;3.890;2023-07-20T12:07:19;24.60;42.30
81136;DHT22;70622;50.886;3.890;2023-07-20T12:09:57;24.50;43.30
81136;DHT22;70622;50.886;3.890;2023-07-20T12:12:28;24.20;45.10
81136;DHT22;70622;50.886;3.890;2023-07-20T12:14:53;24.00;45.80
81136;DHT22;70622;50.886;3.890;2023-07-20T12:17:19;23.90;46.40
81136;DHT22;70622;50.886;3.890;2023-07-20T12:19:44;23.70;46.60
81136;DHT22;70622;50.886;3.890;2023-07-20T12:22:11;23.70;46.80
81136;DHT22;70622;50.886;3.890;2023-07-20T12:24:37;23.70;47.20
81136;DHT22;70622;50.886;3.890;2023-07-20T12:27:03;23.60;47.60
81136;DHT22;70622;50.886;3.890;2023-07-20T12:29:28;23.60;47.20
81136;DHT22;70622;50.886;3.890;2023-07-20T12:31:54;23.40;48.30
81136;DHT22;70622;50.886;3.890;2023-07-20T12:34:21;23.40;49.70
81136;DHT22;70622;50.886;3.890;2023-07-20T12:36:46;23.10;51.10
81136;DHT22;70622;50.886;3.890;2023-07-20T12:39:12;22.80;52.50
81136;DHT22;70622;50.886;3.890;2023-07-20T12:41:38;22.60;53.20
81136;DHT22;70622;50.886;3.890;2023-07-20T12:44:03;22.50;52.90
81136;DHT22;70622;50.886;3.890;2023-07-20T12:46:30;22.30;53.70
81136;DHT22;70622;50.886;3.890;2023-07-20T12:49:00;22.00;54.70
81136;DHT22;70622;50.886;3.890;2023-07-20T12:51:25;22.00;56.20
81136;DHT22;70622;50.886;3.890;2023-07-20T12:53:51;22.00;56.80
81136;DHT22;70622;50.886;3.890;2023-07-20T12:56:16;21.90;56.90
81136;DHT22;70622;50.886;3.890;2023-07-20T12:58:42;21.80;58.00
81136;DHT22;70622;50.886;3.890;2023-07-20T13:01:07;21.90;59.80
81136;DHT22;70622;50.886;3.890;2023-07-20T13:03:33;22.10;59.10
81136;DHT22;70622;50.886;3.890;2023-07-20T13:05:59;22.30;59.30
81136;DHT22;70622;50.886;3.890;2023-07-20T13:08:24;22.40;58.60
81136;DHT22;70622;50.886;3.890;2023-07-20T13:10:51;22.60;57.50
81136;DHT22;70622;50.886;3.890;2023-07-20T13:13:17;22.70;56.70
81136;DHT22;70622;50.886;3.890;2023-07-20T13:15:43;23.20;55.90
81136;DHT22;70622;50.886;3.890;2023-07-20T13:18:09;23.60;53.80
81136;DHT22;70622;50.886;3.890;2023-07-20T13:20:35;23.90;54.00
81136;DHT22;70622;50.886;3.890;2023-07-20T13:23:00;24.10;53.60
81136;DHT22;70622;50.886;3.890;2023-07-20T13:25:26;24.40;52.20
81136;DHT22;70622;50.886;3.890;2023-07-20T13:27:52;24.80;52.00
81136;DHT22;70622;50.886;3.890;2023-07-20T13:30:18;25.40;47.80
81136;DHT22;70622;50.886;3.890;2023-07-20T13:32:44;25.70;45.90
81136;DHT22;70622;50.886;3.890;2023-07-20T13:35:09;26.20;45.40
81136;DHT22;70622;50.886;3.890;2023-07-20T13:37:35;26.40;42.80
81136;DHT22;70622;50.886;3.890;2023-07-20T13:40:01;26.40;42.70
81136;DHT22;70622;50.886;3.890;2023-07-20T13:42:26;26.50;41.80
81136;DHT22;70622;50.886;3.890;2023-07-20T13:44:52;26.30;42.40
81136;DHT22;70622;50.886;3.890;2023-07-20T13:47:17;26.30;42.10
81136;DHT22;70622;50.886;3.890;2023-07-20T13:49:43;26.40;42.00
81136;DHT22;70622;50.886;3.890;2023-07-20T13:52:09;26.70;41.10
81136;DHT22;70622;50.886;3.890;2023-07-20T13:54:34;26.70;41.10
81136;DHT22;70622;50.886;3.890;2023-07-20T13:57:00;26.80;40.90
81136;DHT22;70622;50.886;3.890;2023-07-20T13:59:26;26.50;41.00
81136;DHT22;70622;50.886;3.890;2023-07-20T14:01:51;26.00;42.10
81136;DHT22;70622;50.886;3.890;2023-07-20T14:04:17;25.70;42.60
81136;DHT22;70622;50.886;3.890;2023-07-20T14:06:42;25.70;43.20
81136;DHT22;70622;50.886;3.890;2023-07-20T14:09:08;25.60;42.40
81136;DHT22;70622;50.886;3.890;2023-07-20T14:11:34;25.30;43.30
81136;DHT22;70622;50.886;3.890;2023-07-20T14:13:59;25.20;44.00
81136;DHT22;70622;50.886;3.890;2023-07-20T14:16:25;24.80;45.40
81136;DHT22;70622;50.886;3.890;2023-07-20T14:18:50;24.60;46.00
81136;DHT22;70622;50.886;3.890;2023-07-20T14:21:16;24.30;47.30
81136;DHT22;70622;50.886;3.890;2023-07-20T14:23:44;24.10;47.80
81136;DHT22;70622;50.886;3.890;2023-07-20T14:26:10;24.10;47.80
81136;DHT22;70622;50.886;3.890;2023-07-20T14:28:35;23.90;47.80
81136;DHT22;70622;50.886;3.890;2023-07-20T14:31:01;24.00;48.70
81136;DHT22;70622;50.886;3.890;2023-07-20T14:33:26;23.80;49.00
81136;DHT22;70622;50.886;3.890;2023-07-20T14:35:52;23.60;52.50
81136;DHT22;70622;50.886;3.890;2023-07-20T14:38:17;23.40;51.40
81136;DHT22;70622;50.886;3.890;2023-07-20T14:40:43;22.90;52.30
81136;DHT22;70622;50.886;3.890;2023-07-20T14:43:10;22.00;57.70
81136;DHT22;70622;50.886;3.890;2023-07-20T14:45:35;21.10;61.20
81136;DHT22;70622;50.886;3.890;2023-07-20T14:48:03;19.70;72.80
81136;DHT22;70622;50.886;3.890;2023-07-20T14:50:29;19.10;76.40
81136;DHT22;70622;50.886;3.890;2023-07-20T14:52:54;18.60;78.60
81136;DHT22;70622;50.886;3.890;2023-07-20T14:55:20;18.40;78.40
81136;DHT22;70622;50.886;3.890;2023-07-20T14:57:47;18.50;80.20
81136;DHT22;70622;50.886;3.890;2023-07-20T15:00:13;18.20;78.80
81136;DHT22;70622;50.886;3.890;2023-07-20T15:02:40;18.10;84.00
81136;DHT22;70622;50.886;3.890;2023-07-20T15:05:06;17.90;83.80
81136;DHT22;70622;50.886;3.890;2023-07-20T15:07:32;17.80;84.10
81136;DHT22;70622;50.886;3.890;2023-07-20T15:09:58;17.80;85.30
81136;DHT22;70622;50.886;3.890;2023-07-20T15:12:24;17.80;86.50
81136;DHT22;70622;50.886;3.890;2023-07-20T15:15:01;17.80;87.10
81136;DHT22;70622;50.886;3.890;2023-07-20T15:17:27;17.90;85.10
81136;DHT22;70622;50.886;3.890;2023-07-20T15:19:53;17.90;86.10
81136;DHT22;70622;50.886;3.890;2023-07-20T15:22:18;18.00;84.60
81136;DHT22;70622;50.886;3.890;2023-07-20T15:24:44;18.20;82.40
81136;DHT22;70622;50.886;3.890;2023-07-20T15:27:09;18.20;82.70
81136;DHT22;70622;50.886;3.890;2023-07-20T15:29:35;18.30;81.60
81136;DHT22;70622;50.886;3.890;2023-07-20T15:32:01;18.30;81.60
81136;DHT22;70622;50.886;3.890;2023-07-20T15:34:26;18.30;82.70
81136;DHT22;70622;50.886;3.890;2023-07-20T15:36:52;18.40;80.40
81136;DHT22;70622;50.886;3.890;2023-07-20T15:39:17;18.40;81.30
81136;DHT22;70622;50.886;3.890;2023-07-20T15:41:43;18.40;80.90
81136;DHT22;70622;50.886;3.890;2023-07-20T15:44:08;18.30;79.00